sensor_id;sensor_type;location;lat;lon;timestamp;pressure;altitude;pressure_sealevel;temperature;humidity
83177;BME280;73074;52.006;4.704;2023-11-21T00:01:38;101151.66;;;6.38;100.00
83177;BME280;73074;52.006;4.704;2023-11-21T00:06:39;101156.03;;;6.39;100.00
83177;BME280;73074;52.006;4.704;2023-11-21T00:11:40;101162.38;;;6.32;100.00
83177;BME280;73074;52.006;4.704;2023-11-21T00:16:42;101163.25;;;6.32;100.00
83177;BME280;73074;52.006;4.704;2023-11-21T00:21:44;101156.00;;;6.42;100.00
83177;BME280;73074;52.006;4.704;2023-11-21T00:26:45;101162.69;;;6.58;100.00
83177;BME280;73074;52.006;4.704;2023-11-21T00:31:46;101168.56;;;6.71;100.00
83177;BME280;73074;52.006;4.704;2023-11-21T00:36:47;101167.47;;;6.79;100.00
83177;BME280;73074;52.006;4.704;2023-11-21T00:42:04;101175.31;;;6.84;100.00
83177;BME280;73074;52.006;4.704;2023-11-21T00:47:05;101175.16;;;6.90;100.00
83177;BME280;73074;52.006;4.704;2023-11-21T00:52:16;101175.94;;;6.94;100.00
83177;BME280;73074;52.006;4.704;2023-11-21T00:57:17;101181.19;;;6.97;100.00
83177;BME280;73074;52.006;4.704;2023-11-21T01:02:31;101181.97;;;7.00;100.00
83177;BME280;73074;52.006;4.704;2023-11-21T01:07:31;101186.19;;;7.07;100.00
83177;BME280;73074;52.006;4.704;2023-11-21T01:12:34;101191.34;;;7.14;100.00
83177;BME280;73074;52.006;4.704;2023-11-21T01:17:47;101181.53;;;7.19;100.00
83177;BME280;73074;52.006;4.704;2023-11-21T01:22:51;101189.31;;;7.25;100.00
83177;BME280;73074;52.006;4.704;2023-11-21T01:28:13;101207.63;;;7.32;100.00
83177;BME280;73074;52.006;4.704;2023-11-21T01:33:15;101209.22;;;7.39;100.00
83177;BME280;73074;52.006;4.704;2023-11-21T01:38:16;101221.38;;;7.47;100.00
83177;BME280;73074;52.006;4.704;2023-11-21T01:43:33;101232.66;;;7.53;100.00
83177;BME280;73074;52.006;4.704;2023-11-21T01:48:38;101226.44;;;7.56;100.00
83177;BME280;73074;52.006;4.704;2023-11-21T01:53:40;101238.66;;;7.60;100.00
83177;BME280;73074;52.006;4.704;2023-11-21T01:58:42;101239.41;;;7.66;100.00
83177;BME280;73074;52.006;4.704;2023-11-21T02:03:45;101245.47;;;7.70;100.00
83177;BME280;73074;52.006;4.704;2023-11-21T02:08:51;101245.44;;;7.71;100.00
83177;BME280;73074;52.006;4.704;2023-11-21T02:14:04;101245.38;;;7.73;100.00
83177;BME280;73074;52.006;4.704;2023-11-21T02:19:25;101241.81;;;7.74;100.00
83177;BME280;73074;52.006;4.704;2023-11-21T02:24:26;101254.09;;;7.78;100.00
83177;BME280;73074;52.006;4.704;2023-11-21T02:29:27;101250.53;;;7.79;100.00
83177;BME280;73074;52.006;4.704;2023-11-21T02:34:34;101255.69;;;7.84;100.00
83177;BME280;73074;52.006;4.704;2023-11-21T02:39:43;101258.03;;;7.96;100.00
83177;BME280;73074;52.006;4.704;2023-11-21T02:44:44;101264.09;;;7.99;100.00
83177;BME280;73074;52.006;4.704;2023-11-21T02:49:45;101275.56;;;8.00;100.00
83177;BME280;73074;52.006;4.704;2023-11-21T02:54:46;101266.66;;;8.04;100.00
83177;BME280;73074;52.006;4.704;2023-11-21T02:59:47;101264.91;;;8.03;100.00
83177;BME280;73074;52.006;4.704;2023-11-21T03:04:58;101265.66;;;8.08;100.00
83177;BME280;73074;52.006;4.704;2023-11-21T03:10:15;101273.41;;;8.14;100.00
83177;BME280;73074;52.006;4.704;2023-11-21T03:15:22;101275.13;;;8.17;100.00
83177;BME280;73074;52.006;4.704;2023-11-21T03:20:28;101280.28;;;8.21;100.00
83177;BME280;73074;52.006;4.704;2023-11-21T03:25:32;101275.78;;;8.25;100.00
83177;BME280;73074;52.006;4.704;2023-11-21T03:30:33;101268.66;;;8.27;100.00
83177;BME280;73074;52.006;4.704;2023-11-21T03:35:34;101284.47;;;8.30;100.00
83177;BME280;73074;52.006;4.704;2023-11-21T03:40:39;101291.50;;;8.31;100.00
83177;BME280;73074;52.006;4.704;2023-11-21T03:45:43;101292.38;;;8.32;100.00
83177;BME280;73074;52.006;4.704;2023-11-21T03:50:44;101303.88;;;8.30;100.00
83177;BME280;73074;52.006;4.704;2023-11-21T03:55:48;101303.94;;;8.29;100.00
83177;BME280;73074;52.006;4.704;2023-11-21T04:00:57;101314.47;;;8.30;100.00
83177;BME280;73074;52.006;4.704;2023-11-21T04:06:31;101323.13;;;8.37;100.00
83177;BME280;73074;52.006;4.704;2023-11-21T04:11:32;101328.34;;;8.40;100.00
83177;BME280;73074;52.006;4.704;2023-11-21T04:16:40;101332.72;;;8.43;100.00
83177;BME280;73074;52.006;4.704;2023-11-21T04:21:58;101344.13;;;8.45;100.00
83177;BME280;73074;52.006;4.704;2023-11-21T04:26:59;101345.81;;;8.47;100.00
83177;BME280;73074;52.006;4.704;2023-11-21T04:31:59;101358.97;;;8.50;100.00
83177;BME280;73074;52.006;4.704;2023-11-21T04:37:00;101365.91;;;8.56;100.00
83177;BME280;73074;52.006;4.704;2023-11-21T04:42:01;101367.53;;;8.60;100.00
83177;BME280;73074;52.006;4.704;2023-11-21T04:47:02;101364.81;;;8.63;100.00
83177;BME280;73074;52.006;4.704;2023-11-21T04:52:30;101373.53;;;8.67;100.00
83177;BME280;73074;52.006;4.704;2023-11-21T04:57:40;101390.22;;;8.70;100.00
83177;BME280;73074;52.006;4.704;2023-11-21T05:02:45;101403.28;;;8.76;100.00
83177;BME280;73074;52.006;4.704;2023-11-21T05:07:49;101410.13;;;8.85;100.00
83177;BME280;73074;52.006;4.704;2023-11-21T05:12:54;101401.28;;;8.86;100.00
83177;BME280;73074;52.006;4.704;2023-11-21T05:18:02;101398.69;;;8.84;100.00
83177;BME280;73074;52.006;4.704;2023-11-21T05:23:03;101407.50;;;8.85;100.00
83177;BME280;73074;52.006;4.704;2023-11-21T05:28:14;101412.78;;;8.85;100.00
83177;BME280;73074;52.006;4.704;2023-11-21T05:33:19;101426.00;;;8.86;100.00
83177;BME280;73074;52.006;4.704;2023-11-21T05:38:35;101424.34;;;8.81;100.00
83177;BME280;73074;52.006;4.704;2023-11-21T05:43:39;101421.69;;;8.82;100.00
83177;BME280;73074;52.006;4.704;2023-11-21T05:48:42;101445.59;;;8.79;100.00
83177;BME280;73074;52.006;4.704;2023-11-21T05:53:44;101437.81;;;8.73;100.00
83177;BME280;73074;52.006;4.704;2023-11-21T05:58:56;101456.41;;;8.72;100.00
83177;BME280;73074;52.006;4.704;2023-11-21T06:03:58;101469.25;;;8.87;100.00
83177;BME280;73074;52.006;4.704;2023-11-21T06:09:02;101473.31;;;9.00;100.00
83177;BME280;73074;52.006;4.704;2023-11-21T06:14:13;101478.34;;;9.11;100.00
83177;BME280;73074;52.006;4.704;2023-11-21T06:19:14;101487.06;;;9.14;100.00
83177;BME280;73074;52.006;4.704;2023-11-21T06:24:18;101485.19;;;9.18;100.00
83177;BME280;73074;52.006;4.704;2023-11-21T06:29:20;101481.56;;;9.22;100.00
83177;BME280;73074;52.006;4.704;2023-11-21T06:34:31;101493.78;;;9.28;100.00
83177;BME280;73074;52.006;4.704;2023-11-21T06:39:34;101495.59;;;9.26;100.00
83177;BME280;73074;52.006;4.704;2023-11-21T06:44:34;101510.72;;;9.22;100.00
83177;BME280;73074;52.006;4.704;2023-11-21T06:49:54;101514.53;;;9.12;100.00
83177;BME280;73074;52.006;4.704;2023-11-21T06:54:55;101529.47;;;9.14;100.00
83177;BME280;73074;52.006;4.704;2023-11-21T07:05:26;101543.16;;;9.32;100.00
83177;BME280;73074;52.006;4.704;2023-11-21T07:10:32;101547.38;;;9.39;100.00
83177;BME280;73074;52.006;4.704;2023-11-21T07:15:35;101554.28;;;9.44;100.00
83177;BME280;73074;52.006;4.704;2023-11-21T07:20:38;101560.41;;;9.46;100.00
83177;BME280;73074;52.006;4.704;2023-11-21T07:25:48;101570.00;;;9.52;100.00
83177;BME280;73074;52.006;4.704;2023-11-21T07:30:49;101580.47;;;9.57;100.00
83177;BME280;73074;52.006;4.704;2023-11-21T07:35:50;101590.13;;;9.59;100.00
83177;BME280;73074;52.006;4.704;2023-11-21T07:40:51;101598.09;;;9.59;100.00
83177;BME280;73074;52.006;4.704;2023-11-21T07:45:52;101602.47;;;9.60;100.00
83177;BME280;73074;52.006;4.704;2023-11-21T07:50:53;101611.31;;;9.62;100.00
83177;BME280;73074;52.006;4.704;2023-11-21T07:55:58;101614.72;;;9.66;100.00
83177;BME280;73074;52.006;4.704;2023-11-21T08:01:00;101626.13;;;9.69;100.00
83177;BME280;73074;52.006;4.704;2023-11-21T08:06:10;101632.22;;;9.73;100.00
83177;BME280;73074;52.006;4.704;2023-11-21T08:11:12;101639.25;;;9.75;100.00
83177;BME280;73074;52.006;4.704;2023-11-21T08:16:13;101649.84;;;9.75;100.00
83177;BME280;73074;52.006;4.704;2023-11-21T08:21:18;101652.41;;;9.78;100.00
83177;BME280;73074;52.006;4.704;2023-11-21T08:26:27;101665.53;;;9.83;100.00
83177;BME280;73074;52.006;4.704;2023-11-21T08:31:33;101661.13;;;9.84;100.00
83177;BME280;73074;52.006;4.704;2023-11-21T08:36:50;101666.38;;;9.85;100.00
83177;BME280;73074;52.006;4.704;2023-11-21T08:41:59;101670.81;;;9.85;100.00
83177;BME280;73074;52.006;4.704;2023-11-21T08:47:00;101676.88;;;9.90;100.00
83177;BME280;73074;52.006;4.704;2023-11-21T08:52:15;101686.63;;;9.89;100.00
83177;BME280;73074;52.006;4.704;2023-11-21T08:57:20;101680.22;;;9.96;100.00
83177;BME280;73074;52.006;4.704;2023-11-21T09:02:40;101689.72;;;10.05;100.00
83177;BME280;73074;52.006;4.704;2023-11-21T09:07:42;101697.41;;;10.14;100.00
83177;BME280;73074;52.006;4.704;2023-11-21T09:12:50;101699.97;;;10.19;100.00
83177;BME280;73074;52.006;4.704;2023-11-21T09:18:01;101722.94;;;10.20;100.00
83177;BME280;73074;52.006;4.704;2023-11-21T09:23:02;101730.81;;;10.24;100.00
83177;BME280;73074;52.006;4.704;2023-11-21T09:28:05;101732.50;;;10.27;100.00
83177;BME280;73074;52.006;4.704;2023-11-21T09:33:09;101739.50;;;10.31;100.00
83177;BME280;73074;52.006;4.704;2023-11-21T09:38:16;101751.09;;;10.28;100.00
83177;BME280;73074;52.006;4.704;2023-11-21T09:43:18;101761.78;;;10.25;100.00
83177;BME280;73074;52.006;4.704;2023-11-21T09:48:23;101771.47;;;10.26;100.00
83177;BME280;73074;52.006;4.704;2023-11-21T09:53:29;101787.38;;;10.28;100.00
83177;BME280;73074;52.006;4.704;2023-11-21T09:58:40;101791.06;;;10.22;100.00
83177;BME280;73074;52.006;4.704;2023-11-21T10:03:44;101804.34;;;10.22;100.00
83177;BME280;73074;52.006;4.704;2023-11-21T10:08:46;101813.25;;;10.20;100.00
83177;BME280;73074;52.006;4.704;2023-11-21T10:13:48;101822.13;;;10.19;100.00
83177;BME280;73074;52.006;4.704;2023-11-21T10:18:53;101836.44;;;10.12;100.00
83177;BME280;73074;52.006;4.704;2023-11-21T10:24:01;101841.88;;;10.07;100.00
83177;BME280;73074;52.006;4.704;2023-11-21T10:29:12;101865.78;;;10.07;100.00
83177;BME280;73074;52.006;4.704;2023-11-21T10:34:18;101872.88;;;10.06;100.00
83177;BME280;73074;52.006;4.704;2023-11-21T10:39:20;101867.69;;;10.02;100.00
83177;BME280;73074;52.006;4.704;2023-11-21T10:44:21;101879.13;;;10.04;100.00
83177;BME280;73074;52.006;4.704;2023-11-21T10:49:27;101880.97;;;10.02;100.00
83177;BME280;73074;52.006;4.704;2023-11-21T10:54:40;101898.47;;;10.09;100.00
83177;BME280;73074;52.006;4.704;2023-11-21T10:59:45;101897.72;;;10.04;100.00
83177;BME280;73074;52.006;4.704;2023-11-21T11:04:54;101899.50;;;10.03;100.00
83177;BME280;73074;52.006;4.704;2023-11-21T11:09:58;101908.34;;;10.04;100.00
83177;BME280;73074;52.006;4.704;2023-11-21T11:15:16;101904.66;;;10.10;100.00
83177;BME280;73074;52.006;4.704;2023-11-21T11:20:18;101909.16;;;10.06;100.00
83177;BME280;73074;52.006;4.704;2023-11-21T11:31:19;101900.91;;;10.18;100.00
83177;BME280;73074;52.006;4.704;2023-11-21T11:36:41;101908.91;;;10.17;100.00
83177;BME280;73074;52.006;4.704;2023-11-21T11:42:02;101912.44;;;10.17;100.00
83177;BME280;73074;52.006;4.704;2023-11-21T11:47:16;101920.50;;;10.13;100.00
83177;BME280;73074;52.006;4.704;2023-11-21T11:57:35;101921.19;;;10.22;100.00
83177;BME280;73074;52.006;4.704;2023-11-21T12:02:39;101930.72;;;10.31;100.00
83177;BME280;73074;52.006;4.704;2023-11-21T12:07:58;101955.38;;;10.36;100.00
83177;BME280;73074;52.006;4.704;2023-11-21T12:13:22;101952.03;;;10.28;100.00
83177;BME280;73074;52.006;4.704;2023-11-21T12:18:25;101957.69;;;10.13;100.00
83177;BME280;73074;52.006;4.704;2023-11-21T12:23:30;101952.59;;;10.03;100.00
83177;BME280;73074;52.006;4.704;2023-11-21T12:28:33;101968.63;;;9.99;100.00
83177;BME280;73074;52.006;4.704;2023-11-21T12:33:40;101967.06;;;9.90;100.00
83177;BME280;73074;52.006;4.704;2023-11-21T12:38:56;101982.75;;;9.99;100.00
83177;BME280;73074;52.006;4.704;2023-11-21T12:44:01;101981.72;;;10.06;100.00
83177;BME280;73074;52.006;4.704;2023-11-21T12:49:32;101980.63;;;10.17;100.00
83177;BME280;73074;52.006;4.704;2023-11-21T12:54:40;102001.66;;;10.26;100.00
83177;BME280;73074;52.006;4.704;2023-11-21T12:59:48;102003.16;;;10.38;99.71
83177;BME280;73074;52.006;4.704;2023-11-21T13:05:04;102013.72;;;10.39;99.85
83177;BME280;73074;52.006;4.704;2023-11-21T13:10:06;102003.97;;;10.40;99.28
83177;BME280;73074;52.006;4.704;2023-11-21T13:15:19;102013.69;;;10.41;99.09
83177;BME280;73074;52.006;4.704;2023-11-21T13:20:25;102022.88;;;10.27;99.68
83177;BME280;73074;52.006;4.704;2023-11-21T13:25:27;102018.72;;;10.14;99.69
83177;BME280;73074;52.006;4.704;2023-11-21T13:30:42;102031.34;;;10.04;99.87
83177;BME280;73074;52.006;4.704;2023-11-21T13:35:44;102039.38;;;10.00;100.00
83177;BME280;73074;52.006;4.704;2023-11-21T13:40:50;102042.25;;;9.91;100.00
83177;BME280;73074;52.006;4.704;2023-11-21T13:46:28;102042.31;;;9.88;100.00
83177;BME280;73074;52.006;4.704;2023-11-21T13:51:58;102045.72;;;9.94;100.00
83177;BME280;73074;52.006;4.704;2023-11-21T13:57:02;102063.50;;;9.91;100.00
83177;BME280;73074;52.006;4.704;2023-11-21T14:02:09;102065.38;;;9.84;100.00
83177;BME280;73074;52.006;4.704;2023-11-21T14:07:10;102078.16;;;9.65;100.00
83177;BME280;73074;52.006;4.704;2023-11-21T14:12:13;102102.03;;;9.65;100.00
83177;BME280;73074;52.006;4.704;2023-11-21T14:17:23;102090.63;;;9.62;100.00
83177;BME280;73074;52.006;4.704;2023-11-21T14:22:41;102103.91;;;9.59;99.83
83177;BME280;73074;52.006;4.704;2023-11-21T14:27:49;102112.00;;;9.53;99.68
83177;BME280;73074;52.006;4.704;2023-11-21T14:32:52;102115.59;;;9.50;99.81
83177;BME280;73074;52.006;4.704;2023-11-21T14:37:59;102122.53;;;9.57;99.86
83177;BME280;73074;52.006;4.704;2023-11-21T14:43:21;102139.25;;;9.61;99.53
83177;BME280;73074;52.006;4.704;2023-11-21T14:48:29;102139.44;;;9.52;99.11
83177;BME280;73074;52.006;4.704;2023-11-21T14:53:43;102150.25;;;9.41;99.00
83177;BME280;73074;52.006;4.704;2023-11-21T14:58:48;102153.81;;;9.38;99.26
83177;BME280;73074;52.006;4.704;2023-11-21T15:03:58;102162.69;;;9.37;99.22
83177;BME280;73074;52.006;4.704;2023-11-21T15:09:03;102187.41;;;9.39;99.46
83177;BME280;73074;52.006;4.704;2023-11-21T15:14:06;102183.94;;;9.34;99.32
83177;BME280;73074;52.006;4.704;2023-11-21T15:19:07;102189.25;;;9.33;99.25
83177;BME280;73074;52.006;4.704;2023-11-21T15:24:29;102223.84;;;9.27;98.90
83177;BME280;73074;52.006;4.704;2023-11-21T15:29:32;102224.78;;;9.24;98.30
83177;BME280;73074;52.006;4.704;2023-11-21T15:34:34;102235.41;;;9.21;98.09
83177;BME280;73074;52.006;4.704;2023-11-21T15:39:42;102249.69;;;9.12;97.02
83177;BME280;73074;52.006;4.704;2023-11-21T15:44:43;102255.06;;;9.09;97.37
83177;BME280;73074;52.006;4.704;2023-11-21T15:49:50;102274.50;;;9.08;97.09
83177;BME280;73074;52.006;4.704;2023-11-21T15:55:05;102274.53;;;9.05;97.37
83177;BME280;73074;52.006;4.704;2023-11-21T16:00:09;102287.78;;;9.05;97.43
83177;BME280;73074;52.006;4.704;2023-11-21T16:05:17;102303.75;;;9.01;97.11
83177;BME280;73074;52.006;4.704;2023-11-21T16:10:17;102306.50;;;8.96;97.19
83177;BME280;73074;52.006;4.704;2023-11-21T16:15:58;102318.94;;;8.88;96.41
83177;BME280;73074;52.006;4.704;2023-11-21T16:21:00;102322.53;;;8.85;96.84
83177;BME280;73074;52.006;4.704;2023-11-21T16:26:01;102350.81;;;8.83;97.09
83177;BME280;73074;52.006;4.704;2023-11-21T16:31:25;102348.25;;;8.74;96.25
83177;BME280;73074;52.006;4.704;2023-11-21T16:36:30;102365.97;;;8.71;96.53
83177;BME280;73074;52.006;4.704;2023-11-21T16:41:39;102377.47;;;8.70;97.04
83177;BME280;73074;52.006;4.704;2023-11-21T16:47:13;102369.59;;;8.62;96.92
83177;BME280;73074;52.006;4.704;2023-11-21T16:52:48;102396.13;;;8.59;97.25
83177;BME280;73074;52.006;4.704;2023-11-21T16:58:13;102419.97;;;8.54;97.35
83177;BME280;73074;52.006;4.704;2023-11-21T17:03:24;102438.59;;;8.48;97.75
83177;BME280;73074;52.006;4.704;2023-11-21T17:08:53;102449.22;;;8.47;97.88
83177;BME280;73074;52.006;4.704;2023-11-21T17:13:57;102455.41;;;8.46;97.40
83177;BME280;73074;52.006;4.704;2023-11-21T17:19:04;102466.00;;;8.46;98.16
83177;BME280;73074;52.006;4.704;2023-11-21T17:24:20;102482.78;;;8.45;97.89
83177;BME280;73074;52.006;4.704;2023-11-21T17:29:30;102497.81;;;8.40;97.24
83177;BME280;73074;52.006;4.704;2023-11-21T17:34:36;102504.03;;;8.36;96.99
83177;BME280;73074;52.006;4.704;2023-11-21T17:39:46;102512.88;;;8.30;97.68
83177;BME280;73074;52.006;4.704;2023-11-21T17:45:06;102531.50;;;8.16;97.02
83177;BME280;73074;52.006;4.704;2023-11-21T17:50:16;102525.41;;;8.02;97.34
83177;BME280;73074;52.006;4.704;2023-11-21T17:55:21;102521.06;;;7.90;97.18
83177;BME280;73074;52.006;4.704;2023-11-21T18:00:30;102537.84;;;7.83;97.16
83177;BME280;73074;52.006;4.704;2023-11-21T18:05:53;102540.53;;;7.76;97.06
83177;BME280;73074;52.006;4.704;2023-11-21T18:11:00;102554.69;;;7.65;97.02
83177;BME280;73074;52.006;4.704;2023-11-21T18:16:05;102562.63;;;7.56;96.90
83177;BME280;73074;52.006;4.704;2023-11-21T18:27:04;102576.81;;;7.38;96.88
83177;BME280;73074;52.006;4.704;2023-11-21T18:32:38;102597.94;;;7.31;96.88
83177;BME280;73074;52.006;4.704;2023-11-21T18:38:14;102608.56;;;7.23;96.56
83177;BME280;73074;52.006;4.704;2023-11-21T18:43:23;102619.13;;;7.16;96.51
83177;BME280;73074;52.006;4.704;2023-11-21T18:48:47;102610.31;;;7.10;96.96
83177;BME280;73074;52.006;4.704;2023-11-21T18:54:12;102621.78;;;7.08;96.32
83177;BME280;73074;52.006;4.704;2023-11-21T19:04:44;102650.84;;;6.99;97.21
83177;BME280;73074;52.006;4.704;2023-11-21T19:10:17;102650.81;;;6.91;96.50
83177;BME280;73074;52.006;4.704;2023-11-21T19:15:18;102660.50;;;6.89;97.00
83177;BME280;73074;52.006;4.704;2023-11-21T19:20:24;102664.03;;;6.85;97.10
83177;BME280;73074;52.006;4.704;2023-11-21T19:25:55;102674.59;;;6.84;95.73
83177;BME280;73074;52.006;4.704;2023-11-21T19:30:59;102696.63;;;6.82;95.90
83177;BME280;73074;52.006;4.704;2023-11-21T19:41:54;102681.63;;;6.68;96.64
83177;BME280;73074;52.006;4.704;2023-11-21T19:47:32;102683.34;;;6.60;96.36
83177;BME280;73074;52.006;4.704;2023-11-21T19:52:57;102673.63;;;6.51;97.12
83177;BME280;73074;52.006;4.704;2023-11-21T19:58:05;102682.44;;;6.45;98.18
83177;BME280;73074;52.006;4.704;2023-11-21T20:03:07;102684.16;;;6.40;97.45
83177;BME280;73074;52.006;4.704;2023-11-21T20:08:23;102705.28;;;6.36;98.13
83177;BME280;73074;52.006;4.704;2023-11-21T20:13:28;102708.78;;;6.33;98.39
83177;BME280;73074;52.006;4.704;2023-11-21T20:19:01;102723.75;;;6.34;97.85
83177;BME280;73074;52.006;4.704;2023-11-21T20:24:12;102732.53;;;6.30;98.41
83177;BME280;73074;52.006;4.704;2023-11-21T20:29:21;102736.00;;;6.26;98.80
83177;BME280;73074;52.006;4.704;2023-11-21T20:34:49;102754.47;;;6.23;99.55
83177;BME280;73074;52.006;4.704;2023-11-21T20:40:14;102752.72;;;6.22;99.06
83177;BME280;73074;52.006;4.704;2023-11-21T20:45:50;102761.50;;;6.21;99.42
83177;BME280;73074;52.006;4.704;2023-11-21T20:51:12;102779.09;;;6.16;99.38
83177;BME280;73074;52.006;4.704;2023-11-21T20:56:26;102772.88;;;6.11;99.84
83177;BME280;73074;52.006;4.704;2023-11-21T21:01:42;102774.59;;;6.04;100.00
83177;BME280;73074;52.006;4.704;2023-11-21T21:06:45;102784.22;;;5.99;100.00
83177;BME280;73074;52.006;4.704;2023-11-21T21:11:54;102788.63;;;5.97;100.00
83177;BME280;73074;52.006;4.704;2023-11-21T21:16:56;102789.47;;;5.90;100.00
83177;BME280;73074;52.006;4.704;2023-11-21T21:21:59;102800.81;;;5.86;100.00
83177;BME280;73074;52.006;4.704;2023-11-21T21:27:04;102803.41;;;5.81;100.00
83177;BME280;73074;52.006;4.704;2023-11-21T21:32:15;102810.44;;;5.78;100.00
83177;BME280;73074;52.006;4.704;2023-11-21T21:37:34;102825.34;;;5.76;100.00
83177;BME280;73074;52.006;4.704;2023-11-21T21:42:57;102841.13;;;5.73;100.00
83177;BME280;73074;52.006;4.704;2023-11-21T21:48:56;102844.63;;;5.70;100.00
83177;BME280;73074;52.006;4.704;2023-11-21T21:54:03;102843.75;;;5.68;100.00
83177;BME280;73074;52.006;4.704;2023-11-21T21:59:36;102840.19;;;5.63;100.00
83177;BME280;73074;52.006;4.704;2023-11-21T22:04:42;102860.41;;;5.62;100.00
83177;BME280;73074;52.006;4.704;2023-11-21T22:09:57;102875.34;;;5.63;100.00
83177;BME280;73074;52.006;4.704;2023-11-21T22:15:21;102877.94;;;5.60;100.00
83177;BME280;73074;52.006;4.704;2023-11-21T22:20:30;102881.44;;;5.59;100.00
83177;BME280;73074;52.006;4.704;2023-11-21T22:26:02;102885.88;;;5.62;100.00
83177;BME280;73074;52.006;4.704;2023-11-21T22:31:03;102878.88;;;5.64;100.00
83177;BME280;73074;52.006;4.704;2023-11-21T22:36:41;102886.78;;;5.67;100.00
83177;BME280;73074;52.006;4.704;2023-11-21T22:41:49;102892.09;;;5.70;100.00
83177;BME280;73074;52.006;4.704;2023-11-21T22:47:02;102881.56;;;5.72;100.00
83177;BME280;73074;52.006;4.704;2023-11-21T22:52:03;102889.56;;;5.79;100.00
83177;BME280;73074;52.006;4.704;2023-11-21T22:57:07;102898.38;;;5.86;100.00
83177;BME280;73074;52.006;4.704;2023-11-21T23:02:16;102889.69;;;5.91;100.00
83177;BME280;73074;52.006;4.704;2023-11-21T23:07:28;102895.00;;;5.96;100.00
83177;BME280;73074;52.006;4.704;2023-11-21T23:12:42;102889.75;;;5.98;100.00
83177;BME280;73074;52.006;4.704;2023-11-21T23:17:52;102902.94;;;5.99;100.00
83177;BME280;73074;52.006;4.704;2023-11-21T23:22:54;102891.50;;;5.99;99.60
83177;BME280;73074;52.006;4.704;2023-11-21T23:27:57;102900.28;;;5.98;99.52
83177;BME280;73074;52.006;4.704;2023-11-21T23:33:08;102889.72;;;5.95;100.00
83177;BME280;73074;52.006;4.704;2023-11-21T23:38:32;102881.75;;;5.88;100.00
83177;BME280;73074;52.006;4.704;2023-11-21T23:43:33;102877.31;;;5.87;100.00
83177;BME280;73074;52.006;4.704;2023-11-21T23:48:34;102872.03;;;5.87;100.00
83177;BME280;73074;52.006;4.704;2023-11-21T23:53:56;102867.66;;;5.88;99.60
83177;BME280;73074;52.006;4.704;2023-11-21T23:59:08;102896.63;;;5.85;99.78
